createdAt,value
2023-01-28T00:01:26.157Z,11.57
2023-01-28T00:03:56.968Z,11.75
2023-01-28T00:06:27.986Z,11.82
2023-01-28T00:08:58.885Z,10.65
2023-01-28T00:11:27.706Z,11.65
2023-01-28T00:13:58.531Z,11.20
2023-01-28T00:16:27.408Z,10.75
2023-01-28T00:18:59.657Z,10.17
2023-01-28T00:21:35.394Z,10.98
2023-01-28T00:24:07.055Z,9.30
2023-01-28T00:26:38.787Z,9.18
2023-01-28T00:29:07.768Z,9.70
2023-01-28T00:31:41.627Z,9.18
2023-01-28T00:34:11.353Z,7.90
2023-01-28T00:36:45.177Z,7.63
2023-01-28T00:39:18.117Z,7.50
2023-01-28T00:41:46.800Z,8.20
2023-01-28T00:44:16.808Z,8.38
2023-01-28T00:46:49.459Z,8.55
2023-01-28T00:49:20.885Z,8.32
2023-01-28T00:51:51.755Z,9.07
2023-01-28T00:54:21.846Z,8.13
2023-01-28T00:56:51.777Z,7.55
2023-01-28T00:59:20.079Z,7.03
2023-01-28T01:01:49.668Z,7.65
2023-01-28T01:04:26.455Z,7.10
2023-01-28T01:06:56.313Z,6.88
2023-01-28T01:09:24.935Z,6.85
2023-01-28T01:11:53.924Z,7.95
2023-01-28T01:14:22.671Z,7.63
2023-01-28T01:16:51.514Z,7.53
2023-01-28T01:19:23.048Z,6.45
2023-01-28T01:21:52.765Z,6.65
2023-01-28T01:24:22.228Z,6.55
2023-01-28T01:26:57.422Z,5.75
2023-01-28T01:29:26.002Z,7.00
2023-01-28T01:31:58.278Z,7.38
2023-01-28T01:34:27.541Z,7.65
2023-01-28T01:37:03.874Z,6.55
2023-01-28T01:39:34.229Z,7.15
2023-01-28T01:42:03.788Z,6.63
2023-01-28T01:44:57.465Z,7.80
2023-01-28T01:47:34.320Z,7.85
2023-01-28T01:50:05.449Z,7.78
2023-01-28T01:52:38.727Z,8.15
2023-01-28T01:55:10.276Z,8.20
2023-01-28T01:57:41.756Z,8.10
2023-01-28T02:00:11.026Z,9.45
2023-01-28T02:02:47.788Z,9.20
2023-01-28T02:05:20.316Z,10.05
2023-01-28T02:07:54.990Z,11.68
2023-01-28T02:10:26.955Z,12.52
2023-01-28T02:12:57.958Z,12.45
2023-01-28T02:15:29.830Z,12.02
2023-01-28T02:17:58.574Z,11.82
2023-01-28T02:20:30.449Z,10.25
2023-01-28T02:23:18.995Z,10.03
2023-01-28T02:26:09.590Z,10.40
2023-01-28T02:28:42.057Z,9.15
2023-01-28T02:31:15.507Z,10.25
2023-01-28T02:36:18.881Z,9.40
2023-01-28T02:38:49.468Z,9.93
2023-01-28T02:41:26.807Z,11.18
2023-01-28T02:43:55.030Z,9.95
2023-01-28T02:46:44.539Z,10.75
2023-01-28T02:49:22.014Z,11.10
2023-01-28T02:51:58.945Z,11.13
2023-01-28T02:54:29.709Z,12.10
2023-01-28T02:56:57.790Z,11.65
2023-01-28T02:59:36.648Z,12.35
2023-01-28T03:05:01.452Z,10.95
2023-01-28T03:10:02.088Z,10.82
2023-01-28T03:12:59.120Z,11.57
2023-01-28T03:15:48.242Z,11.48
2023-01-28T03:18:40.717Z,10.93
2023-01-28T03:21:27.325Z,11.35
2023-01-28T03:24:25.125Z,11.30
2023-01-28T03:27:22.235Z,11.65
2023-01-28T03:30:20.227Z,11.48
2023-01-28T03:33:20.177Z,11.43
2023-01-28T03:36:08.824Z,10.60
2023-01-28T03:38:42.131Z,10.73
2023-01-28T03:41:13.451Z,10.95
2023-01-28T03:43:45.334Z,10.88
2023-01-28T03:46:14.305Z,9.88
2023-01-28T03:48:42.802Z,10.65
2023-01-28T03:51:13.584Z,11.23
2023-01-28T03:53:45.604Z,10.60
2023-01-28T03:56:26.093Z,10.73
2023-01-28T03:58:57.188Z,10.80
2023-01-28T04:01:26.415Z,10.65
2023-01-28T04:03:57.311Z,9.80
2023-01-28T04:06:30.984Z,10.95
2023-01-28T04:09:13.085Z,10.13
2023-01-28T04:11:56.295Z,10.38
2023-01-28T04:14:35.831Z,9.45
2023-01-28T04:17:15.948Z,9.57
2023-01-28T04:19:48.860Z,9.52
2023-01-28T04:22:21.041Z,9.60
2023-01-28T04:24:51.076Z,9.55
2023-01-28T04:27:20.661Z,9.38
2023-01-28T04:29:52.554Z,9.40
2023-01-28T04:32:54.321Z,9.05
2023-01-28T04:35:49.063Z,8.35
2023-01-28T04:38:44.424Z,8.63
2023-01-28T04:41:51.161Z,9.40
2023-01-28T04:44:31.723Z,8.15
2023-01-28T04:47:11.484Z,9.05
2023-01-28T04:49:58.196Z,8.82
2023-01-28T04:52:46.702Z,8.85
2023-01-28T04:55:25.315Z,8.98
2023-01-28T04:57:56.586Z,9.27
2023-01-28T05:00:26.068Z,9.52
2023-01-28T05:03:07.538Z,8.75
2023-01-28T05:05:36.509Z,9.05
2023-01-28T05:08:19.052Z,8.52
2023-01-28T05:10:49.133Z,8.20
2023-01-28T05:13:19.753Z,8.55
2023-01-28T05:15:53.991Z,8.60
2023-01-28T05:18:22.746Z,8.32
2023-01-28T05:21:04.714Z,9.18
2023-01-28T05:23:35.398Z,9.13
2023-01-28T05:26:06.287Z,9.63
2023-01-28T05:28:38.622Z,8.48
2023-01-28T05:31:11.257Z,9.07
2023-01-28T05:33:40.273Z,9.32
2023-01-28T05:36:12.499Z,8.90
2023-01-28T05:38:45.332Z,9.07
2023-01-28T05:41:13.708Z,9.20
2023-01-28T05:43:47.407Z,10.20
2023-01-28T05:46:34.802Z,10.15
2023-01-28T05:49:20.076Z,11.15
2023-01-28T05:52:09.464Z,11.65
2023-01-28T05:54:38.056Z,10.57
2023-01-28T05:57:06.327Z,10.38
2023-01-28T05:59:36.555Z,10.52
2023-01-28T06:02:05.115Z,10.60
2023-01-28T06:04:33.812Z,10.20
2023-01-28T06:07:05.220Z,10.70
2023-01-28T06:09:34.392Z,10.18
2023-01-28T06:12:04.600Z,10.05
2023-01-28T06:14:39.607Z,8.93
2023-01-28T06:17:35.355Z,9.30
2023-01-28T06:22:44.324Z,8.32
2023-01-28T06:25:13.274Z,10.50
2023-01-28T06:27:44.109Z,9.93
2023-01-28T06:30:15.567Z,10.75
2023-01-28T06:32:56.189Z,9.23
2023-01-28T06:35:27.249Z,9.82
2023-01-28T06:40:29.811Z,9.25
2023-01-28T06:43:00.952Z,10.07
2023-01-28T06:45:30.217Z,10.20
2023-01-28T06:47:58.595Z,10.60
2023-01-28T06:50:27.665Z,10.60
2023-01-28T06:53:01.569Z,10.45
2023-01-28T06:55:34.073Z,9.88
2023-01-28T06:58:07.964Z,10.30
2023-01-28T07:00:40.878Z,11.27
2023-01-28T07:03:26.270Z,11.20
2023-01-28T07:05:54.858Z,10.38
2023-01-28T07:08:23.431Z,11.07
2023-01-28T07:10:54.303Z,11.77
2023-01-28T07:13:22.851Z,12.05
2023-01-28T07:15:51.734Z,11.82
2023-01-28T07:18:20.923Z,12.00
2023-01-28T07:20:49.724Z,11.77
2023-01-28T07:23:21.338Z,11.55
2023-01-28T07:25:53.434Z,12.23
2023-01-28T07:28:22.649Z,12.85
2023-01-28T07:30:54.086Z,12.30
2023-01-28T07:33:25.143Z,12.90
2023-01-28T07:35:54.736Z,12.77
2023-01-28T07:38:25.751Z,11.77
2023-01-28T07:40:54.457Z,12.60
2023-01-28T07:43:26.473Z,11.95
2023-01-28T07:46:01.039Z,12.10
2023-01-28T07:48:31.523Z,12.02
2023-01-28T07:51:02.713Z,13.10
2023-01-28T07:53:33.004Z,13.10
2023-01-28T07:56:02.444Z,12.40
2023-01-28T07:58:37.634Z,12.82
2023-01-28T08:01:06.335Z,11.20
2023-01-28T08:03:40.074Z,10.85
2023-01-28T08:06:09.156Z,11.05
2023-01-28T08:08:37.778Z,11.20
2023-01-28T08:11:12.411Z,10.85
2023-01-28T08:13:44.367Z,10.00
2023-01-28T08:16:14.830Z,11.63
2023-01-28T08:18:43.347Z,10.13
2023-01-28T08:21:12.705Z,11.55
2023-01-28T08:23:43.723Z,11.38
2023-01-28T08:26:12.279Z,11.40
2023-01-28T08:28:44.454Z,10.32
2023-01-28T08:31:16.145Z,10.93
2023-01-28T08:33:47.427Z,12.38
2023-01-28T08:36:16.652Z,11.05
2023-01-28T08:38:45.791Z,11.30
2023-01-28T08:41:14.938Z,12.57
2023-01-28T08:43:44.296Z,12.02
2023-01-28T08:46:14.051Z,12.77
2023-01-28T08:48:44.836Z,12.15
2023-01-28T08:51:14.092Z,11.63
2023-01-28T08:53:45.935Z,11.60
2023-01-28T08:56:20.253Z,11.15
2023-01-28T08:58:51.230Z,12.40
2023-01-28T09:01:21.489Z,12.15
2023-01-28T09:03:51.264Z,11.05
2023-01-28T09:06:20.064Z,12.68
2023-01-28T09:08:49.374Z,11.68
2023-01-28T09:11:18.665Z,12.23
2023-01-28T09:13:46.947Z,13.13
2023-01-28T09:16:15.862Z,14.13
2023-01-28T09:18:45.995Z,14.32
2023-01-28T09:21:14.718Z,14.00
2023-01-28T09:23:45.049Z,13.35
2023-01-28T09:26:13.739Z,12.32
2023-01-28T09:28:42.295Z,13.85
2023-01-28T09:31:12.961Z,14.07
2023-01-28T09:33:44.008Z,15.57
2023-01-28T09:36:12.529Z,15.32
2023-01-28T09:38:41.432Z,15.27
2023-01-28T09:41:16.308Z,14.98
2023-01-28T09:43:51.349Z,16.00
2023-01-28T09:46:19.841Z,14.35
2023-01-28T09:48:51.930Z,15.30
2023-01-28T09:51:29.231Z,15.07
2023-01-28T09:53:59.786Z,14.40
2023-01-28T09:56:37.633Z,15.98
2023-01-28T09:59:21.220Z,15.52
2023-01-28T10:01:54.423Z,15.95
2023-01-28T10:04:23.419Z,15.40
2023-01-28T10:06:56.891Z,16.58
2023-01-28T10:09:49.379Z,13.80
2023-01-28T10:12:24.839Z,15.20
2023-01-28T10:15:02.027Z,15.63
2023-01-28T10:17:31.911Z,14.25
2023-01-28T10:20:30.948Z,13.98
2023-01-28T10:23:05.672Z,14.35
2023-01-28T10:25:34.570Z,16.02
2023-01-28T10:28:03.891Z,15.45
2023-01-28T10:30:36.284Z,16.20
2023-01-28T10:33:15.395Z,16.08
2023-01-28T10:35:48.027Z,16.13
2023-01-28T10:38:18.272Z,15.30
2023-01-28T10:40:48.218Z,15.38
2023-01-28T10:43:26.397Z,15.00
2023-01-28T10:45:54.903Z,16.40
2023-01-28T10:48:30.295Z,17.83
2023-01-28T10:51:06.063Z,21.80
2023-01-28T10:53:43.767Z,16.50
2023-01-28T10:56:38.589Z,15.98
2023-01-28T10:59:20.716Z,15.88
2023-01-28T11:01:56.027Z,17.45
2023-01-28T11:04:27.701Z,15.05
2023-01-28T11:06:57.780Z,17.02
2023-01-28T11:09:31.437Z,15.93
2023-01-28T11:12:35.020Z,15.05
2023-01-28T11:15:05.366Z,15.70
2023-01-28T11:17:50.000Z,16.92
2023-01-28T11:20:23.162Z,16.45
2023-01-28T11:22:54.835Z,17.02
2023-01-28T11:25:30.292Z,16.23
2023-01-28T11:28:03.186Z,16.27
2023-01-28T11:30:37.061Z,17.42
2023-01-28T11:33:24.914Z,16.17
2023-01-28T11:35:57.864Z,16.02
2023-01-28T11:38:28.890Z,16.30
2023-01-28T11:40:58.284Z,18.45
2023-01-28T11:43:29.104Z,17.42
2023-01-28T11:46:14.441Z,19.52
2023-01-28T11:49:09.035Z,17.65
2023-01-28T11:51:47.314Z,17.08
2023-01-28T11:54:15.410Z,17.67
2023-01-28T11:56:45.616Z,18.13
2023-01-28T11:59:22.858Z,16.50
2023-01-28T12:02:02.085Z,17.60
2023-01-28T12:05:06.031Z,16.95
2023-01-28T12:07:49.052Z,17.00
2023-01-28T12:10:35.730Z,16.42
2023-01-28T12:13:10.801Z,16.05
2023-01-28T12:15:51.221Z,16.98
2023-01-28T12:18:22.206Z,15.75
2023-01-28T12:21:16.195Z,16.88
2023-01-28T12:23:51.028Z,17.63
2023-01-28T12:26:25.264Z,17.30
2023-01-28T12:28:53.294Z,16.27
2023-01-28T12:31:27.834Z,16.90
2023-01-28T12:34:14.675Z,17.65
2023-01-28T12:36:53.308Z,15.85
2023-01-28T12:39:24.200Z,15.48
2023-01-28T12:41:55.474Z,16.38
2023-01-28T12:44:32.167Z,17.75
2023-01-28T12:47:07.150Z,15.45
2023-01-28T12:49:41.256Z,14.60
2023-01-28T12:52:28.431Z,14.63
2023-01-28T12:55:02.122Z,16.05
2023-01-28T12:57:33.556Z,15.57
2023-01-28T13:00:22.969Z,14.68
2023-01-28T13:03:04.732Z,14.82
2023-01-28T13:05:39.468Z,13.40
2023-01-28T13:08:12.832Z,12.13
2023-01-28T13:13:14.793Z,12.60
2023-01-28T13:15:44.789Z,11.80
2023-01-28T13:18:30.772Z,11.80
2023-01-28T13:21:02.039Z,12.82
2023-01-28T13:23:39.709Z,12.75
2023-01-28T13:26:19.901Z,12.53
2023-01-28T13:28:49.133Z,17.60
2023-01-28T13:31:24.758Z,13.98
2023-01-28T13:33:55.841Z,12.80
2023-01-28T13:36:30.760Z,12.35
2023-01-28T13:39:16.363Z,12.95
2023-01-28T13:41:46.278Z,11.98
2023-01-28T13:44:26.846Z,12.07
2023-01-28T13:47:15.077Z,12.27
2023-01-28T13:49:49.955Z,12.63
2023-01-28T13:52:23.649Z,9.30
2023-01-28T13:54:58.155Z,13.07
2023-01-28T13:57:35.629Z,13.80
2023-01-28T14:00:06.897Z,14.77
2023-01-28T14:02:50.581Z,12.32
2023-01-28T14:05:21.668Z,12.63
2023-01-28T14:08:12.762Z,12.95
2023-01-28T14:10:59.288Z,14.63
2023-01-28T14:13:40.325Z,13.98
2023-01-28T14:16:30.579Z,15.00
2023-01-28T14:19:01.825Z,12.40
2023-01-28T14:21:34.944Z,13.45
2023-01-28T14:24:03.206Z,13.68
2023-01-28T14:26:55.148Z,13.40
2023-01-28T14:29:34.237Z,12.48
2023-01-28T14:32:06.684Z,12.57
2023-01-28T14:34:38.121Z,13.38
2023-01-28T14:37:08.878Z,14.45
2023-01-28T14:39:40.916Z,13.65
2023-01-28T14:42:14.187Z,14.45
2023-01-28T14:44:45.298Z,13.65
2023-01-28T14:47:22.864Z,12.93
2023-01-28T14:50:14.556Z,13.80
2023-01-28T14:53:03.073Z,13.65
2023-01-28T14:55:41.553Z,12.82
2023-01-28T14:58:21.264Z,13.55
2023-01-28T15:00:56.764Z,12.85
2023-01-28T15:03:25.864Z,14.52
2023-01-28T15:06:13.330Z,13.25
2023-01-28T15:08:44.846Z,14.55
2023-01-28T15:11:21.888Z,13.32
2023-01-28T15:13:53.498Z,12.77
2023-01-28T15:16:28.535Z,12.98
2023-01-28T15:19:01.533Z,12.68
2023-01-28T15:21:30.823Z,12.88
2023-01-28T15:24:01.144Z,11.93
2023-01-28T15:26:34.546Z,13.07
2023-01-28T15:29:09.430Z,11.07
2023-01-28T15:31:39.157Z,13.10
2023-01-28T15:34:15.362Z,15.00
2023-01-28T15:36:44.025Z,15.40
2023-01-28T15:39:15.327Z,14.10
2023-01-28T15:41:47.399Z,15.15
2023-01-28T15:44:24.127Z,14.93
2023-01-28T15:46:52.767Z,15.15
2023-01-28T15:49:22.393Z,15.32
2023-01-28T15:51:53.007Z,15.43
2023-01-28T15:54:21.705Z,15.25
2023-01-28T15:56:50.340Z,14.30
2023-01-28T15:59:21.849Z,15.00
2023-01-28T16:02:04.175Z,15.63
2023-01-28T16:04:32.868Z,13.73
2023-01-28T16:07:05.016Z,14.73
2023-01-28T16:09:34.577Z,15.63
2023-01-28T16:12:09.706Z,14.27
2023-01-28T16:14:49.894Z,14.40
2023-01-28T16:17:22.573Z,16.05
2023-01-28T16:20:02.257Z,15.93
2023-01-28T16:22:32.568Z,21.92
2023-01-28T16:25:01.101Z,35.63
2023-01-28T16:27:32.357Z,19.35
2023-01-28T16:30:01.971Z,17.33
2023-01-28T16:32:50.417Z,19.55
2023-01-28T16:35:47.217Z,18.98
2023-01-28T16:38:21.982Z,17.92
2023-01-28T16:40:53.778Z,17.92
2023-01-28T16:43:22.359Z,18.55
2023-01-28T16:45:52.066Z,18.08
2023-01-28T16:48:21.541Z,17.65
2023-01-28T16:50:51.614Z,19.67
2023-01-28T16:53:21.710Z,18.90
2023-01-28T16:55:51.948Z,19.33
2023-01-28T16:58:24.396Z,19.25
2023-01-28T17:00:53.205Z,21.38
2023-01-28T17:03:24.784Z,21.83
2023-01-28T17:05:59.398Z,22.93
2023-01-28T17:08:28.466Z,22.50
2023-01-28T17:10:57.175Z,20.10
2023-01-28T17:13:25.507Z,22.17
2023-01-28T17:15:56.483Z,21.83
2023-01-28T17:18:24.842Z,22.27
2023-01-28T17:20:53.802Z,19.60
2023-01-28T17:23:24.151Z,23.00
2023-01-28T17:25:52.278Z,19.95
2023-01-28T17:28:21.417Z,19.52
2023-01-28T17:30:49.697Z,19.23
2023-01-28T17:33:30.563Z,17.73
2023-01-28T17:35:59.563Z,17.70
2023-01-28T17:38:29.312Z,16.23
2023-01-28T17:41:07.710Z,16.48
2023-01-28T17:43:36.235Z,17.95
2023-01-28T17:46:15.274Z,18.60
2023-01-28T17:48:45.731Z,17.40
2023-01-28T17:51:16.846Z,36.72
2023-01-28T17:53:47.959Z,21.92
2023-01-28T17:56:19.092Z,22.48
2023-01-28T17:58:54.685Z,18.85
2023-01-28T18:01:27.132Z,19.90
2023-01-28T18:03:56.351Z,19.63
2023-01-28T18:06:32.559Z,18.80
2023-01-28T18:09:04.594Z,18.15
2023-01-28T18:11:38.494Z,18.60
2023-01-28T18:14:07.648Z,18.85
2023-01-28T18:16:36.184Z,19.75
2023-01-28T18:19:06.257Z,21.25
2023-01-28T18:21:51.187Z,21.02
2023-01-28T18:24:21.557Z,21.13
2023-01-28T18:26:51.688Z,19.55
2023-01-28T18:29:23.843Z,20.08
2023-01-28T18:31:55.618Z,23.52
2023-01-28T18:34:24.902Z,23.98
2023-01-28T18:36:53.474Z,21.27
2023-01-28T18:39:23.256Z,20.70
2023-01-28T18:41:55.213Z,19.35
2023-01-28T18:44:24.457Z,19.25
2023-01-28T18:46:55.405Z,20.15
2023-01-28T18:49:26.872Z,18.45
2023-01-28T18:51:59.441Z,19.37
2023-01-28T18:54:34.301Z,19.80
2023-01-28T18:57:03.148Z,21.27
2023-01-28T18:59:33.509Z,20.00
2023-01-28T19:02:04.348Z,21.15
2023-01-28T19:04:34.890Z,21.60
2023-01-28T19:07:03.680Z,20.33
2023-01-28T19:09:34.793Z,21.13
2023-01-28T19:12:04.021Z,22.10
2023-01-28T19:14:35.889Z,22.73
2023-01-28T19:17:05.566Z,20.17
2023-01-28T19:19:34.307Z,20.25
2023-01-28T19:22:05.178Z,23.15
2023-01-28T19:24:35.179Z,21.63
2023-01-28T19:27:05.941Z,23.83
2023-01-28T19:29:34.865Z,23.95
2023-01-28T19:32:08.463Z,23.90
2023-01-28T19:34:38.689Z,17.88
2023-01-28T19:37:07.799Z,24.55
2023-01-28T19:39:38.952Z,22.17
2023-01-28T19:42:07.632Z,23.02
2023-01-28T19:44:37.603Z,19.52
2023-01-28T19:47:08.564Z,22.83
2023-01-28T19:49:38.480Z,22.65
2023-01-28T19:52:09.131Z,22.10
2023-01-28T19:54:39.179Z,22.33
2023-01-28T19:57:07.496Z,23.13
2023-01-28T19:59:39.675Z,21.30
2023-01-28T20:02:10.277Z,23.33
2023-01-28T20:04:54.833Z,21.10
2023-01-28T20:07:37.415Z,22.70
2023-01-28T20:10:09.691Z,23.55
2023-01-28T20:12:42.703Z,23.23
2023-01-28T20:15:13.677Z,23.13
2023-01-28T20:17:49.485Z,25.77
2023-01-28T20:20:18.135Z,25.10
2023-01-28T20:22:48.707Z,25.45
2023-01-28T20:25:17.839Z,23.70
2023-01-28T20:27:51.712Z,23.13
2023-01-28T20:30:20.686Z,23.55
2023-01-28T20:33:00.321Z,25.52
2023-01-28T20:35:28.774Z,26.13
2023-01-28T20:37:57.615Z,29.35
2023-01-28T20:40:27.903Z,29.55
2023-01-28T20:42:56.324Z,27.85
2023-01-28T20:45:26.083Z,26.83
2023-01-28T20:50:28.142Z,24.65
2023-01-28T20:52:58.851Z,27.77
2023-01-28T20:55:32.874Z,26.20
2023-01-28T20:58:03.415Z,25.63
2023-01-28T21:00:31.930Z,27.17
2023-01-28T21:03:11.074Z,26.42
2023-01-28T21:05:47.702Z,26.15
2023-01-28T21:08:18.310Z,24.73
2023-01-28T21:10:48.487Z,26.55
2023-01-28T21:13:19.269Z,26.33
2023-01-28T21:15:57.827Z,28.27
2023-01-28T21:18:26.871Z,30.13
2023-01-28T21:21:03.274Z,29.77
2023-01-28T21:23:33.383Z,29.95
2023-01-28T21:26:05.578Z,29.20
2023-01-28T21:28:34.122Z,28.95
2023-01-28T21:31:07.324Z,29.80
2023-01-28T21:33:39.434Z,29.52
2023-01-28T21:36:13.550Z,29.55
2023-01-28T21:38:45.895Z,29.75
2023-01-28T21:41:14.360Z,29.30
2023-01-28T21:43:50.007Z,29.00
2023-01-28T21:46:18.624Z,29.88
2023-01-28T21:48:47.897Z,29.25
2023-01-28T21:51:33.810Z,31.38
2023-01-28T21:54:07.176Z,30.38
2023-01-28T21:56:40.046Z,29.00
2023-01-28T21:59:25.837Z,30.70
2023-01-28T22:01:57.596Z,28.42
2023-01-28T22:04:27.597Z,29.33
2023-01-28T22:06:56.001Z,28.05
2023-01-28T22:09:24.480Z,25.60
2023-01-28T22:11:53.938Z,25.42
2023-01-28T22:14:23.102Z,26.20
2023-01-28T22:16:52.667Z,26.27
2023-01-28T22:19:23.382Z,27.80
2023-01-28T22:21:52.179Z,27.00
2023-01-28T22:24:22.442Z,26.15
2023-01-28T22:26:53.769Z,26.67
2023-01-28T22:29:26.960Z,26.27
2023-01-28T22:31:55.788Z,27.10
2023-01-28T22:34:24.850Z,29.23
2023-01-28T22:36:53.421Z,27.63
2023-01-28T22:39:22.672Z,26.00
2023-01-28T22:41:50.915Z,27.10
2023-01-28T22:44:20.800Z,26.92
2023-01-28T22:46:52.266Z,27.02
2023-01-28T22:49:23.507Z,24.85
2023-01-28T22:51:51.841Z,25.77
2023-01-28T22:54:20.297Z,27.27
2023-01-28T22:56:50.467Z,25.98
2023-01-28T22:59:18.979Z,27.48
2023-01-28T23:01:48.674Z,26.80
2023-01-28T23:04:17.411Z,27.92
2023-01-28T23:06:45.767Z,25.48
2023-01-28T23:09:15.430Z,26.45
2023-01-28T23:11:43.900Z,29.05
2023-01-28T23:14:30.110Z,31.15
2023-01-28T23:17:16.815Z,28.05
2023-01-28T23:20:05.873Z,28.85
2023-01-28T23:22:54.804Z,28.02
2023-01-28T23:25:24.042Z,28.50
2023-01-28T23:27:52.514Z,30.15
2023-01-28T23:30:25.139Z,29.98
2023-01-28T23:33:06.684Z,30.00
2023-01-28T23:35:35.378Z,29.00
2023-01-28T23:38:05.926Z,30.35
2023-01-28T23:40:34.486Z,29.85
2023-01-28T23:43:04.455Z,29.30
2023-01-28T23:45:34.507Z,31.27
2023-01-28T23:48:04.291Z,30.77
2023-01-28T23:50:33.655Z,32.33
2023-01-28T23:53:02.883Z,31.02
2023-01-28T23:55:34.532Z,30.52
2023-01-28T23:58:03.670Z,31.00
